cliquez pour ajouter le site Runraid à vos favoris  English version (google)  Retour à l'accueil Ecrire à l'auteur du site Runraid : Michel Jourdan



Les prochaines courses


Les derniers résultats

cliquez pour visualiser la page complète relatant la chronologie des éruptions du Piton de la Fournaise
éruptions Piton de la Fournaise


Ile de La Réunion

 Diagonale des Fous 

Ecrire au créateur du site : Michel Jourdan
Contact


2018-08-15 - Foulées semi nocturnes de Saint-Leu

Pour consulter le palmarès d'un coureur, un clic sur son nom !

Vous avez des remarques, corrections, ... sur ces résultats , un clic sur --> pour me transmettre toute information concernant les classements


Foulées semi nocturnes de Saint-Leu - 2018 : classement des 314 finishers
Place Nom Temps Cat. Club Sexe Clt/cat.
Place Nom Temps Cat. Club Sexe Clt/cat.
1 TSANG CHUN SZE Laurent 00:32:20 SEM M 198
2 CHEONG YUEN ZING Guillaume 00:32:53 SEM COSPI M 2 SEM 194
3 HUET Raphael 00:34:34 SEM ACSGS M 3 SEM 239
4 RICHARD Sebastien 00:34:39 SEM M 4 SEM 182
5 ROBERT Georget 00:34:44 V1M M 1 V1M 204
6 BEN ARFA Adel 00:35:19 SEM M 5 SEM 251
7 GIGAN Jean Michel 00:35:44 V1M M 2 V1M 143
8 ALAMELE Yannis 00:36:10 SEM AC ENTENTE M 6 SEM 225
9 LAW SHUN Matthieu 00:36:13 SEM M 7 SEM 233
10 DAREL Luciano 00:36:17 SEM ACP M 8 SEM 347
11 DALEVAN Jean Eric 00:37:14 V2M M 1 V2M 355
12 BARDEUR Mickael 00:37:29 V1M M 3 V1M 344
13 CROUVIZIER Olivier 00:37:30 SEM M 9 SEM 130
14 PIUZA LEONOR 00:37:33 V1F F 1ere F 314
15 HOARAU Didier 00:37:33 SEM M 10 SEM 278
16 DENNEMONT Julien 00:37:37 SEM M 11 SEM 31
17 BARDIERE Sony 00:37:39 JUM M 1 JUM 100
18 LAURET Rudy 00:37:40 SEM M 12 SEM 325
19 MERMERA Fred 00:37:42 V2M M 2 V2M 181
20 DELOOR Vincent 00:37:49 V1M M 4 V1M 271
21 LORICOURT Teddy Paul 00:37:50 SEM M 13 SEM 106
22 SAULT Eddy 00:38:02 V2M BNA M 3 V2M 302
23 VITTORI Swan 00:38:08 CAM M 1 CAM 124
24 PERROIS Manuel 00:38:13 SEM COSPI M 14 SEM 90
25 NARSOU Jean Claude Mathieu 00:38:27 SEM RDB M 15 SEM 179
26 SOUCHON Willy 00:38:29 SEM AC ST LEU M 16 SEM 196
27 VIRIN Jean Cyrille 00:38:36 V2M M 4 V2M 22
28 FONTENELLE Stephane 00:38:38 V1M OUESTRAIL M 5 V1M 160
29 RANGUIN Bertrand 00:38:44 V1M M 6 V1M 86
30 VIDOT Yannick 00:38:59 V1M BNA M 7 V1M 146
31 LALOUBERE Jerome 00:39:09 V1M M 8 V1M 242
32 MAURIN Dominique 00:39:10 V2F F 2 F - 1 V2F 218
33 RIVERA Nathan 00:39:14 CAM M 2 CAM 80
34 GRONDIN Jacques 00:39:15 V1M M 9 V1M 171
35 DUGAIN Fabien 00:39:26 SEM M 17 SEM 39
36 PAPAYA Charles 00:39:28 V1M AJAC M 10 V1M 226
37 DIJOUX Cedric 00:39:39 SEM M 18 SEM 260
38 SCHRAM Laurent 00:39:39 V1M OUESTRAIL M 11 V1M 249
39 MAREE Sully 00:39:42 V1M M 12 V1M 148
40 DIDIER Kevin 00:39:44 SEM M 19 SEM 54
41 HAMILCARO Jefferson 00:39:52 CAM M 3 CAM 35
42 BARRET Mickael 00:40:00 V1M M 13 V1M 112
43 LEBOUTEILLER XAVIER 00:40:00 V1M M 14 V1M 132
44 CAPOUNDA Jean Raphael 00:40:04 SEM M 20 SEM 358
45 DIJOUX Joseph Nicol 00:40:08 V1M M 15 V1M 79
46 RIVERA Alexandre 00:40:13 V1M M 16 V1M 81
47 PARENT Olivier 00:40:16 V2M M 5 V2M 167
48 BADe Bryan 00:40:20 SEM M 21 SEM 248
49 TECHER Florent Quentin 00:40:21 JUM M 2 JUM 307
50 ELLAMA Roland 00:40:22 V3M AVAD M 1 V3M 275
51 VITRY Jean Hugues 00:40:26 V2M RP974 M 6 V2M 108
52 CASSARO Frederic 00:40:29 V1M M 17 V1M 330
53 THIBAUDEAU Dorian 00:40:37 CAM M 4 CAM 162
54 CAROUPAYE CAROUPIN Alexandre Tomy 00:40:45 CAM M 5 CAM 78
55 GANOVA Alexandre 00:40:47 SEM ORT M 22 SEM 157
56 PEREZ David 00:40:51 V1M M 18 V1M 125
57 BOYER Wilson 00:40:59 SEM COSPI M 23 SEM 172
58 BEGUE Emmanuel 00:41:08 SEM M 24 SEM 250
59 HERBE Sylvain 00:41:24 V2M AB M 7 V2M 29
60 GONFO Luxene 00:41:36 V1M ACSP M 19 V1M 335
61 NARSOU Jean Claude 00:41:42 V2M RDB M 8 V2M 180
62 VELIO Patrick 00:42:07 V2M M 9 V2M 252
63 MARIVIN Remi 00:42:08 SEM M 25 SEM 259
64 TARISTAS Johnson 00:42:30 SEM M 26 SEM 244
65 TECHER Michael 00:42:37 V1M M 20 V1M 92
66 BENCHERIF Hassan 00:42:39 V2M AC ST LEU M 10 V2M 195
67 MOREL Renald 00:42:50 V1M SJ2T M 21 V1M 319
68 RENNEVILLE Roberto 00:42:51 V2M M 11 V2M 102
69 MARDEMOUTOU Jean pierre 00:42:53 V2M CAPC M 12 V2M 61
70 GIGAN Frederic 00:43:00 SEM M 27 SEM 349
71 DENNEMONT Julien 00:43:01 SEM M 28 SEM 32
72 DAVID Olivier 00:43:09 V2M DENIV M 13 V2M 261
73 BOYER Michel 00:43:25 V3M M 2 V3M 315
74 VIRIN Estelle 00:43:39 V1F F 3 F - 2 V1F 7
75 CARO Didier 00:43:41 SEM M 29 SEM 240
76 REOUTE Jacques 00:43:41 V2M M 14 V2M 145
77 JOSSE Michael 00:43:41 SEM M 30 SEM 10
78 MERCIER Jean Luc 00:43:47 V2M M 15 V2M 229
79 VELNA Boris 00:43:49 SEM M 31 SEM 312
80 ANAMALE Frederic 00:43:50 SEM M 32 SEM 263
81 CARO Patrice olivier 00:43:50 SEM M 33 SEM 209
82 MEZINO Frederic 00:43:51 V1M M 22 V1M 155
83 HERBE Noah 00:43:53 CAM AB M 6 CAM 30
84 PRIOR David 00:43:54 V2M M 16 V2M 139
85 BOOLAKY Vanessa 00:43:54 SEF CTBP F 4 F - 1 SEF 177
86 PAJANIANDY Jean Rene 00:44:01 V3M CSSDA M 3 V3M 321
87 AURE Fabrice 00:44:04 V1M M 23 V1M 12
88 CERVEAUX David 00:44:06 V1M M 24 V1M 113
89 LON MON POY Eric 00:44:07 V1M M 25 V1M 317
90 FREDELISY Jean Michel 00:44:10 V3M ACSP M 4 V3M 21
91 ELLAMA Nicolas 00:44:17 SEM M 34 SEM 274
92 NATIVEL Eric 00:44:30 V1M M 26 V1M 65
93 DIJOUX Wilfrid 00:44:32 V1M M 27 V1M 98
94 PARON Quentin 00:44:39 SEM M 35 SEM 170
95 STYMANS Damien 00:44:39 SEM M 36 SEM 129
96 GARDENAT Emeric 00:44:42 V1M M 28 V1M 150
97 GALLOIS Orane 00:44:49 ESF F 5 F - 1 ESF 28
98 RAMOS Jonathan 00:44:52 SEM M 37 SEM 14
99 VAITILINGOM Alexandre 00:44:57 V1M M 29 V1M 208
100 PICARD Arnaud 00:45:00 V1M M 30 V1M 20
101 BARBEITOS Jean Pierre 00:45:19 V1M M 31 V1M 66
102 TECHER Nicolas 00:45:21 SEM M 38 SEM 217
103 GEVIA Daniel 00:45:24 V2M M 17 V2M 156
104 ARNAUD Wilfrid 00:45:26 V2M M 18 V2M 64
105 PAQUIEN Marie 00:45:28 V1F F 6 F - 3 V1F 159
106 FERARD Guy Rodrigue 00:45:30 SEM M 39 SEM 72
107 DULLE Emmanuel 00:45:30 V2M M 19 V2M 328
108 SILOTIA Fabrice 00:45:32 SEM M 40 SEM 353
109 LEGROS David 00:45:33 V1M M 32 V1M 185
110 COMA Fabien 00:45:33 V1M M 33 V1M 41
111 TIPAKA Catherine 00:45:37 V1F F 7 F - 4 V1F 186
112 JACQUET Eddy 00:45:38 V2M M 20 V2M 341
113 YAMI Eric 00:45:39 V3M AC ST LEU M 5 V3M 197
114 SACRI Xavier 00:45:40 V1M M 34 V1M 216
115 HOAREAU Pascal 00:45:41 SEM M 41 SEM 77
116 MERLIN Germain 00:45:43 SEM M 42 SEM 169
117 JEAN BART Gerard 00:45:45 V2M M 21 V2M 117
118 LACONI Jean Pierre 00:45:51 V3M RUN ODYSSE M 6 V3M 63
119 GASPAL Thierry 00:45:55 SEM M 43 SEM 116
120 MARALY Erickson 00:46:00 SEM M 44 SEM 91
121 ETHEVE Loic 00:46:02 SEM M 45 SEM 166
122 HEGOBURU Julie 00:46:13 SEF F 8 F - 2 SEF 339
123 HIRIART Peyo 00:46:14 SEM M 46 SEM 338
124 AJORQUE David 00:46:25 SEM M 47 SEM 46
125 MICHEL Alice 00:46:27 ESF F 9 F - 2 ESF 203
126 LACREUSE Amandine 00:46:40 SEF F 10 F - 3 SEF 52
127 SEVERIN Jean didier 00:46:56 SEM M 48 SEM 161
128 SAULT Chrislin 00:46:57 SEM M 49 SEM 343
129 SILOTIA Tony 00:47:01 SEM M 50 SEM 222
130 MAFFRE Thomas 00:47:10 SEM M 51 SEM 47
131 LAURENDEAU Marie Helene 00:47:11 V3F F 11 F - 1 V3F 219
132 LE PRIOUX Arnaud 00:47:18 V2M M 22 V2M 286
133 SAVIGNY Johan 00:47:23 SEM M 52 SEM 334
134 JACQUET Jerome 00:47:29 V1M M 35 V1M 201
135 PABAN Vincent 00:47:30 SEM M 53 SEM 138
136 LAURET Nicolas 00:47:31 MIM M 1 MIM 354
137 ALEX Jonathan 00:47:32 SEM M 54 SEM 44
138 GILBERT Anne Lise 00:47:38 SEF F 12 F - 4 SEF 103
139 CARO Elinda 00:47:46 SEF CAPP F 13 F - 5 SEF 235
140 MAILLOT Yohan 00:48:18 SEM M 55 SEM 84
141 LACROIX Frederic 00:48:22 V2M M 23 V2M 329
142 SCAIFE Joel 00:48:35 SEM M 56 SEM 238
143 FELDEN Arnaud 00:48:37 SEM M 57 SEM 221
144 CHARDON Jeoffroy 00:48:47 V1M M 36 V1M 246
145 LEBLOND ELISE 00:48:51 SEF F 14 F - 6 SEF 241
146 PAYET Joseph Yves 00:48:58 V3M M 7 V3M 297
147 DETHES Nicolas 00:48:58 SEM M 58 SEM 345
148 KBIDI Jeremie 00:49:23 V1M M 37 V1M 13
149 HEEKENG Harry 00:49:28 V2M M 24 V2M 277
150 CADJEE Hassen 00:49:41 SEM M 59 SEM 316
151 GRAFF Alexandre 00:49:43 V1M M 38 V1M 200
152 TECHER Jean Francois 00:49:46 V3M M 8 V3M 153
153 BALENCOURT Cedric 00:49:50 SEM M 60 SEM 266
154 RAISON Morgane 00:49:52 SEF F 15 F - 7 SEF 24
155 VILLALON Eric 00:49:58 V1M M 39 V1M 33
156 HOARAU Mathieu 00:50:09 SEM COSPI M 61 SEM 118
157 VU VAN Aurore 00:50:11 SEF F 16 F - 8 SEF 258
158 ROCROU Kevin 00:50:15 CAM M 7 CAM 301
159 PANTALEON Jean 00:50:17 V2M M 25 V2M 360
160 LEPERLIER Samuel 00:50:40 SEM M 62 SEM 119
161 BIGOT Willy 00:50:44 SEM COSPI M 63 SEM 332
162 SALZA Laurent 00:50:44 V2M M 26 V2M 305
163 CLAIN Jackson 00:50:54 SEM M 64 SEM 254
164 GRONDIN Alexandre 00:51:02 CAM M 8 CAM 247
165 SANGARIN Jean Philippe 00:51:02 V2M M 27 V2M 324
166 SALING Mathieu 00:51:08 V1M M 40 V1M 327
167 DUMERC Brieuc 00:51:21 CAM AC ST LEU M 9 CAM 326
168 CADERY Fabrice 00:51:26 V1M AC ST LEU M 41 V1M 214
169 CLAIN Hermann 00:51:37 SEM M 65 SEM 227
170 DUTHEIL Bernard 00:51:38 V2M M 28 V2M 199
171 GROSDIDIER Celine 00:51:40 V1F F 17 F - 5 V1F 26
172 NIOX CHATEAU Christine 00:51:46 V1F F 18 F - 6 V1F 115
173 DE CORBIERE Martin 00:51:53 SEM M 66 SEM 45
174 ROUGE MARIVAN Natacha 00:51:58 V1F ACSP F 19 F - 7 V1F 337
175 PONTIAC Claude Enrico 00:52:03 V1M M 42 V1M 144
176 ROUSSEAU Olivier 00:52:04 V1M M 43 V1M 257
177 DEGIOANNINI Matthieu 00:52:11 SEM M 67 SEM 71
178 LON MON POY Patrick 00:52:19 V1M M 44 V1M 318
179 HOAREAU Nicolas Alexandre 00:52:22 SEM SPAC M 68 SEM 173
180 JAVEGNY Loic 00:52:27 SEM M 69 SEM 279
181 GIROUSSENS Damien 00:52:29 SEM M 70 SEM 110
182 JORON Erickson 00:52:39 SEM M 71 SEM 99
183 VANHALST CHAIGNEAU David 00:52:39 V1M M 45 V1M 224
184 MARETTE Bruno 00:52:40 SEM M 72 SEM 210
185 CALOGINE Nicolas 00:52:41 SEM M 73 SEM 123
186 PHILIPPOT Aymeric 00:52:47 V1M M 46 V1M 60
187 LAURENDEAU Xavier 00:52:47 V2M M 29 V2M 220
188 BERGA MAYOL Luis 00:52:58 SEM M 74 SEM 193
189 LALA Mohammad Shoeeb 00:52:58 V1M CASL M 47 V1M 350
190 KATZMAN Francois Xavier 00:52:59 V3M M 9 V3M 281
191 POTHIN Guillaume 00:53:02 SEM M 75 SEM 109
192 BASQUAISE Sonia 00:53:03 V1F F 20 F - 8 V1F 268
193 MARIVAN Eugene 00:53:10 V2M M 30 V2M 340
194 NALEM Idriss 00:53:11 SEM M 76 SEM 85
195 DELEGLISE Severine 00:53:11 V1F F 21 F - 9 V1F 16
196 VITTORI Olivier 00:53:14 V1M M 48 V1M 122
197 PAYET Louis 00:53:25 V1M M 49 V1M 255
198 BEAUMARD Patrick 00:53:26 V1M M 50 V1M 49
199 GAILLARD Antoine 00:53:28 SEM M 77 SEM 1
200 TAMIL Marie Gladys 00:53:32 V1F F 22 F - 10 V1F 154
201 PICOT Stephane 00:53:34 V1M M 51 V1M 206
202 CAZAL Chloe 00:53:36 SEF F 23 F - 9 SEF 163
203 BARRET Sheila 00:53:41 SEF F 24 F - 10 SEF 256
204 ASTOIN Sandrine 00:53:41 V1F F 25 F - 11 V1F 165
205 DAPOLON Expedit 00:53:45 V3M M 10 V3M 342
206 JAURES Nelsie 00:53:47 V1F AC ENTENTE F 26 F - 12 V1F 280
207 DEJEAN Frederic Nelson 00:53:53 V1M M 52 V1M 351
208 GOURAYA Willy 00:54:10 V1M M 53 V1M 276
209 PAYET Ulrich 00:54:10 SEM M 78 SEM 292
210 PORET Frederic 00:54:11 SEM M 79 SEM 291
211 ROBERT Corinne 00:54:25 V1F F 27 F - 13 V1F 205
212 CANTINA Dany 00:54:25 V1M M 54 V1M 34
213 LEBON Regine 00:54:54 V1F F 28 F - 14 V1F 356
214 GAYET Olivier 00:54:58 V2M M 31 V2M 15
215 TALERIEN Arnaud 00:54:59 V2M M 32 V2M 213
216 FOUGEROUX Ludgi 00:55:09 SEM M 80 SEM 202
217 POTHIN Vincent 00:55:09 SEM M 81 SEM 58
218 COVIAUX Jules 00:55:12 CAM M 10 CAM 230
219 HUET Fabrice 00:55:23 SEM M 82 SEM 57
220 BEAUMARD Audrey 00:55:39 SEF F 29 F - 11 SEF 48
221 FOURNIER Aurelie 00:55:39 SEF F 30 F - 12 SEF 175
222 HOARAU Nadia 00:55:42 SEF F 31 F - 13 SEF 107
223 BELUS Matthias 00:55:42 SEM M 83 SEM 56
224 PAYET Sabine 00:55:47 V1F F 32 F - 15 V1F 300
225 MAREE Jessica 00:55:48 SEF F 33 F - 14 SEF 288
226 MEUNIER Sarah 00:55:53 SEF F 34 F - 15 SEF 174
227 GUTIEZ Valerie 00:56:08 V1F F 35 F - 16 V1F 55
228 MADANI MEDARD stephanie 00:56:08 V1F F 36 F - 17 V1F 17
229 MERIGOT Anne Sophie 00:56:18 V1F ADISS F 37 F - 18 V1F 67
230 VITRY Vincent 00:56:43 SEM M 84 SEM 310
231 CHARBONNIER Jean Marie 00:56:45 V2M M 33 V2M 136
232 COMA Cecile 00:56:57 SEF F 38 F - 16 SEF 40
233 ANCEL Stephane 00:56:58 V1M M 55 V1M 120
234 PEYROT Guillaume 00:57:40 SEM M 85 SEM 74
235 GRONDIN Elodie 00:57:46 SEF CAPP F 39 F - 17 SEF 346
236 PAULAT Amandine 00:57:46 SEF F 40 F - 18 SEF 299
237 FELDEN Michel 00:57:52 V3M M 11 V3M 223
238 GALMAR Wilfred Jean Sully 00:58:08 V1M M 56 V1M 95
239 HAUSS Joel 00:58:10 V3M RUN'A M 12 V3M 97
240 MAHE Eva 00:58:37 SEF F 41 F - 19 SEF 37
241 CARRON Jennifer 00:58:45 V1F F 42 F - 19 V1F 59
242 HOARAU Thierry 00:58:53 V1M M 57 V1M 237
243 MANCIET Perlette 00:58:56 V1F F 43 F - 20 V1F 184
244 FOREST Jean Philippe 00:58:57 V2M M 34 V2M 43
245 BERNIOT Emmanuelle 00:58:57 V1F F 44 F - 21 V1F 42
246 SYLVESTRE GONON Jean Marc 00:59:06 V2M M 35 V2M 68
247 SERAPHIN David 00:59:08 SEM M 86 SEM 304
248 SERAPHIN Camille 00:59:08 SEF AC ST LEU F 45 F - 20 SEF 303
249 LALANDE Nicolas 00:59:09 V1M M 58 V1M 82
250 BELAIR Bruno 00:59:22 V1M M 59 V1M 267
251 LAW SHUN Farida 00:59:22 V2F F 46 F - 2 V2F 234
252 BARBIER Bruno 00:59:24 V2M M 36 V2M 89
253 POULVELARIE Agnes 00:59:25 V1F F 47 F - 22 V1F 207
254 DEJEAN Julien 00:59:32 CAM M 11 CAM 352
255 CASSARO Elodie 00:59:33 V1F F 48 F - 23 V1F 331
256 AUCHER Marine 00:59:52 SEF F 49 F - 21 SEF 152
257 GRONDIN Stephane 01:00:20 V1M M 60 V1M 149
258 CLAEYS Raphael 01:00:33 SEM M 87 SEM 142
259 BOUAMAMA Alize 01:00:35 V2F F 50 F - 3 V2F 27
260 COVIAUX Laurent 01:00:36 V2M M 37 V2M 231
261 POUGET Nicolas 01:00:42 V1M M 61 V1M 295
262 LAPAIX Eva 01:00:44 SEF F 51 F - 22 SEF 283
263 ESPARON Emeline 01:00:49 SEF F 52 F - 23 SEF 273
264 POIRIER Christophe 01:00:49 SEM M 88 SEM 296
265 MEYER Anne sophie 01:00:50 SEF F 53 F - 24 SEF 38
266 CANIGUY Jean Luc 01:00:53 V1M AJAC M 62 V1M 262
267 VITRY Noel Jacky 01:00:54 V2M M 38 V2M 311
268 BENCHERIF Martine 01:01:03 V1F F 54 F - 24 V1F 265
269 ROUSSIN Celine 01:01:13 V1F ACSP F 55 F - 25 V1F 164
270 LASSELIN Caroline 01:01:17 SEF F 56 F - 25 SEF 245
271 GALAOR Marie Alexine 01:01:24 V2F F 57 F - 4 V2F 127
272 OUNAMALLE Eric 01:01:24 V2M M 39 V2M 128
273 ADRAS Patrick 01:01:26 SEM M 89 SEM 114
274 CADET Magali 01:01:28 SEF F 58 F - 26 SEF 94
275 ROUSSEAU Emmanuelle 01:01:33 SEF F 59 F - 27 SEF 253
276 GUFFROY Emilie 01:01:59 SEF F 60 F - 28 SEF 23
277 HUE Elise 01:02:11 V1F F 61 F - 26 V1F 359
278 MAUBERT Delphine 01:02:12 V1F F 62 F - 27 V1F 357
279 RIGOLLET Agathe 01:02:26 SEF F 63 F - 29 SEF 126
280 PERRINE Nadege 01:02:27 SEF F 64 F - 30 SEF 293
281 VALLEE Laurent 01:02:44 V1M M 63 V1M 8
282 VALLEE Regine 01:02:44 V2F F 65 F - 5 V2F 9
283 MAROQUIVOI Jocelyn 01:02:58 V2M M 40 V2M 62
284 DALLEAU Catherine 01:03:10 V1F ACSP F 66 F - 28 V1F 183
285 MACARTY Ingrid 01:03:22 V1F F 67 F - 29 V1F 232
286 VANDERPERRE Rachelle 01:03:25 JUF F 68 F - 1 JUF 309
287 VANDERPERRE Guylene 01:03:51 V1F F 69 F - 30 V1F 308
288 VANDERPERRE Jean Marc 01:03:51 V2M M 41 V2M 348
289 GRONDIN Ritchy 01:04:35 SEM M 90 SEM 176
290 PAYET Christelle 01:05:08 V1F F 70 F - 31 V1F 101
291 JEANY Frederic 01:05:09 V1M M 64 V1M 147
292 SINCERE Mauricia 01:05:23 V4F CASL F 71 F - 1 V4F 323
293 GIBERT Delphine 01:05:26 V1F F 72 F - 32 V1F 215
294 BEGUE Patricia 01:06:12 V1F F 73 F - 33 V1F 50
295 DOMECE Alexandre 01:06:28 SEM M 91 SEM 168
296 ALLAIS Camille 01:06:51 SEF F 74 F - 31 SEF 211
297 PAYET Nathalie 01:07:27 SEF F 75 F - 32 SEF 333
298 CASCADE Nadine 01:07:28 V2F F 76 F - 6 V2F 73
299 PICARD Anthony 01:07:31 SEM M 92 SEM 151
300 BERTIL Emilie 01:08:08 SEF F 77 F - 33 SEF 11
301 BEAUMARD Danielle 01:08:10 V1F F 78 F - 34 V1F 51
302 PIGNOLET Emma 01:08:21 SEF ACSP F 79 F - 34 SEF 320
303 MACARTY Fabrice 01:08:34 V1M M 65 V1M 290
304 GOBALE Vanessa 01:08:40 V1F F 80 F - 35 V1F 87
305 AUDOUY Marie Pierre 01:08:40 V1F F 81 F - 36 V1F 264
306 ROUSSELOT BASSIRE Catherine 01:09:07 V1F CASL F 82 F - 37 V1F 322
307 LEVISSE Cyrille 01:09:29 V1M M 66 V1M 75
308 LEVISSE Anne sophie 01:09:29 V1F F 83 F - 38 V1F 76
309 SIMME Jean Prisca elson 01:11:40 SEM CASM M 93 SEM 187
310 ATCHAMA Fabienne 01:12:44 V1F F 84 F - 39 V1F 83
311 DELVO LAMBERT Marie Josette 01:12:45 V1F DSA F 85 F - 40 V1F 111
312 BUBIEN Pascale 01:13:48 V1F F 86 F - 41 V1F 19
313 MAILLOT olivia 01:17:53 SEF F 87 F - 35 SEF 70
314 CHEUNG AH SEUNG Jean Paul 01:22:37 V3M M 13 V3M 121


ReferencementCe site est listé dans la catégorie Sport : Sports extrêmes Dictionnaire
| Accueil | La Réunion  Vue du ciel | Météo | Cyclones | Volcan | Cirques de Mafate , Cilaos , Salazie | Photos Randonnées | Randonnées Réunion: Randos Espiègle , Courses montagne | Diagonale des Fous |  Marathon des Sables | Voyages Les stats du site | Fonds écran | Plan du site | Blog de runraid | Galerie photos Sport Réunion |